Time;durP1;ratioP1;P1;durP2;ratioP2;P2;SDS_P1;SDS_P2;PMS_P1;PMS_P2;Temp;Humidity;BMP_temperature;BMP_pressure;BME280_temperature;BME280_humidity;BME280_pressure;Samples;Min_cycle;Max_cycle;Signal;HPM_P1;HPM_P2
2024/01/18 00:00:31;;;;;;;6.43;4.22;;;;;;;10.80;68.70;98172.06;6233929;23;20027;-75
2024/01/18 00:03:17;;;;;;;12.90;7.35;;;;;;;10.76;69.31;98169.13;6211420;23;20313;-76
2024/01/18 00:06:02;;;;;;;10.38;4.90;;;;;;;10.75;69.17;98172.00;6233571;23;20043;-75
2024/01/18 00:08:47;;;;;;;9.15;4.80;;;;;;;10.74;69.23;98159.78;6234191;23;20458;-76
2024/01/18 00:11:33;;;;;;;7.50;3.45;;;;;;;10.84;69.05;98167.81;6234270;23;20440;-75
2024/01/18 00:14:19;;;;;;;12.48;4.70;;;;;;;10.78;68.64;98160.88;6234090;23;20047;-76
2024/01/18 00:17:04;;;;;;;11.85;4.00;;;;;;;10.85;69.09;98156.16;6233588;23;20027;-74
2024/01/18 00:19:49;;;;;;;6.93;4.05;;;;;;;10.82;68.33;98135.41;6233566;23;20027;-74
2024/01/18 00:22:35;;;;;;;9.23;4.00;;;;;;;10.94;68.68;98145.84;6233939;23;20043;-74
2024/01/18 00:25:21;;;;;;;5.95;3.55;;;;;;;10.93;68.43;98130.94;6233523;23;20027;-75
2024/01/18 00:28:06;;;;;;;4.82;3.13;;;;;;;11.16;67.78;98129.72;6233982;23;20027;-75
2024/01/18 00:30:52;;;;;;;6.82;2.97;;;;;;;11.15;67.23;98128.09;6233925;23;20027;-74
2024/01/18 00:33:39;;;;;;;5.65;2.90;;;;;;;11.14;67.00;98123.84;6233665;23;20042;-76
2024/01/18 00:36:25;;;;;;;13.00;3.85;;;;;;;11.15;67.33;98144.06;6232759;23;20075;-74
2024/01/18 00:39:11;;;;;;;7.20;3.28;;;;;;;11.08;67.23;98139.78;6232045;23;20043;-75
2024/01/18 00:41:56;;;;;;;8.38;3.90;;;;;;;11.13;67.02;98125.72;6228097;22;20408;-76
2024/01/18 00:44:42;;;;;;;8.48;3.80;;;;;;;11.07;67.54;98129.41;6232275;23;20027;-74
2024/01/18 00:47:28;;;;;;;4.90;3.40;;;;;;;11.04;68.52;98125.41;6232969;23;20023;-75
2024/01/18 00:50:13;;;;;;;9.45;3.38;;;;;;;10.93;68.12;98122.94;6233299;23;20428;-76
2024/01/18 00:52:59;;;;;;;7.00;3.13;;;;;;;10.99;67.52;98124.56;6232363;23;20329;-76
2024/01/18 00:55:44;;;;;;;6.07;3.00;;;;;;;11.05;67.88;98134.19;6233553;23;20027;-74
2024/01/18 00:58:30;;;;;;;6.10;3.00;;;;;;;10.95;68.64;98110.22;6231849;23;20451;-75
2024/01/18 01:01:16;;;;;;;8.10;3.35;;;;;;;10.88;69.47;98107.78;6233488;23;20444;-75
2024/01/18 01:04:02;;;;;;;4.93;2.75;;;;;;;10.79;68.79;98102.16;6233302;23;20023;-75
2024/01/18 01:06:48;;;;;;;5.20;3.13;;;;;;;10.71;69.47;98112.47;6234164;23;20071;-76
2024/01/18 01:09:34;;;;;;;7.00;2.92;;;;;;;10.65;69.70;98109.81;6233741;23;20027;-76
2024/01/18 01:12:20;;;;;;;11.30;3.65;;;;;;;10.69;70.05;98110.09;6235723;23;20333;-76
2024/01/18 01:15:07;;;;;;;5.85;3.47;;;;;;;10.62;69.91;98114.81;6233600;23;20436;-75
2024/01/18 01:17:53;;;;;;;8.13;3.92;;;;;;;10.62;69.96;98102.34;6233972;23;20321;-76
2024/01/18 01:20:38;;;;;;;6.20;3.47;;;;;;;10.59;69.94;98110.84;6233575;23;20047;-75
2024/01/18 01:23:24;;;;;;;4.78;2.47;;;;;;;10.65;68.83;98091.22;6232786;23;20436;-75
2024/01/18 01:26:10;;;;;;;8.13;4.22;;;;;;;10.72;69.54;98101.59;6233446;23;20309;-75
2024/01/18 01:28:55;;;;;;;6.35;3.53;;;;;;;10.64;69.23;98084.28;6233141;23;20042;-75
2024/01/18 01:31:41;;;;;;;7.15;3.20;;;;;;;10.57;69.61;98094.34;6234006;23;20043;-75
2024/01/18 01:34:26;;;;;;;4.78;2.75;;;;;;;10.81;69.79;98080.63;6233446;23;20317;-77
2024/01/18 01:37:13;;;;;;;5.85;3.00;;;;;;;10.81;69.11;98081.44;6232929;23;20306;-76
2024/01/18 01:39:58;;;;;;;3.40;2.38;;;;;;;10.88;69.24;98084.66;6233347;23;20329;-75
2024/01/18 01:42:44;;;;;;;5.10;2.60;;;;;;;10.68;69.65;98052.66;6232494;23;20043;-75
2024/01/18 01:45:29;;;;;;;6.10;2.78;;;;;;;10.69;69.40;98056.16;6233102;23;20042;-74
2024/01/18 01:48:14;;;;;;;5.50;3.35;;;;;;;10.67;69.68;98044.97;6232978;23;20448;-75
2024/01/18 01:51:00;;;;;;;6.40;3.08;;;;;;;10.80;69.34;98042.63;6233189;23;20405;-76
2024/01/18 01:53:46;;;;;;;6.05;2.75;;;;;;;10.69;70.11;98029.59;6233691;23;20444;-76
2024/01/18 01:56:33;;;;;;;5.22;2.13;;;;;;;10.81;69.52;98032.78;6233835;23;20031;-74
2024/01/18 01:59:18;;;;;;;4.38;2.40;;;;;;;10.86;69.62;98025.66;6235331;23;20027;-75
2024/01/18 02:02:04;;;;;;;4.78;2.38;;;;;;;10.95;68.80;98017.19;6234950;23;20317;-75
2024/01/18 02:04:50;;;;;;;5.35;2.10;;;;;;;10.97;69.20;98023.84;6233127;23;20436;-75
2024/01/18 02:07:36;;;;;;;3.95;2.28;;;;;;;10.92;68.92;98007.84;6235046;23;20027;-75
2024/01/18 02:10:22;;;;;;;7.70;2.83;;;;;;;10.74;69.92;98013.63;6233632;23;20042;-76
2024/01/18 02:13:07;;;;;;;8.02;3.10;;;;;;;10.56;69.93;97988.31;6236053;23;20313;-75
2024/01/18 02:15:52;;;;;;;5.07;2.63;;;;;;;10.65;69.81;98000.88;6235100;23;20038;-75
2024/01/18 02:18:38;;;;;;;3.25;2.00;;;;;;;10.81;69.45;98011.53;6234860;23;20042;-75
2024/01/18 02:21:25;;;;;;;5.70;2.80;;;;;;;10.86;68.63;97992.97;6236523;23;20042;-76
2024/01/18 02:24:17;;;;;;;3.95;2.40;;;;;;;10.83;68.85;97983.63;6233842;23;20313;-74
2024/01/18 02:27:03;;;;;;;3.15;1.95;;;;;;;10.84;69.30;97985.25;6233831;23;20309;-76
2024/01/18 02:29:48;;;;;;;4.13;2.28;;;;;;;10.75;69.56;97980.69;6235888;23;20070;-74
2024/01/18 02:32:34;;;;;;;4.60;2.67;;;;;;;10.55;69.53;97982.22;6235811;23;20452;-76
2024/01/18 02:35:20;;;;;;;4.15;2.75;;;;;;;10.62;70.59;97981.97;6235508;23;20031;-76
2024/01/18 02:38:05;;;;;;;4.15;2.95;;;;;;;10.53;70.54;97981.69;6236428;23;20297;-75
2024/01/18 02:40:50;;;;;;;6.00;3.10;;;;;;;10.30;72.05;97971.47;6233156;23;20043;-75
2024/01/18 02:43:36;;;;;;;6.22;3.50;;;;;;;10.17;71.94;97986.78;6233567;23;20027;-76
2024/01/18 02:46:22;;;;;;;6.63;3.05;;;;;;;10.30;71.16;97984.75;6234196;23;20027;-74
2024/01/18 02:49:08;;;;;;;4.28;2.25;;;;;;;10.52;71.16;97976.63;6212455;23;20448;-76
2024/01/18 02:51:54;;;;;;;5.80;2.92;;;;;;;10.52;70.31;97966.78;6212710;23;20439;-76
2024/01/18 02:54:39;;;;;;;7.63;3.72;;;;;;;10.40;71.31;97985.63;6233659;23;20082;-76
2024/01/18 02:57:25;;;;;;;14.27;7.47;;;;;;;10.26;71.93;97983.66;6234924;23;20043;-75
2024/01/18 03:00:11;;;;;;;15.45;8.75;;;;;;;9.79;72.10;97974.59;6234605;23;20031;-75
2024/01/18 03:02:57;;;;;;;19.02;9.30;;;;;;;9.37;73.36;97975.34;6235039;23;20323;-76
2024/01/18 03:05:43;;;;;;;19.77;9.68;;;;;;;9.06;75.25;97984.84;6234794;23;20023;-77
2024/01/18 03:08:28;;;;;;;33.30;14.70;;;;;;;8.85;75.90;97975.09;6232765;23;20318;-75
2024/01/18 03:11:14;;;;;;;122.88;63.83;;;;;;;8.57;76.96;97972.38;6234912;23;20024;-74
2024/01/18 03:14:00;;;;;;;25.60;14.27;;;;;;;8.38;77.91;97962.34;6234439;23;20440;-73
2024/01/18 03:16:46;;;;;;;18.75;10.82;;;;;;;8.29;78.42;97972.53;6235120;23;20345;-76
2024/01/18 03:19:32;;;;;;;25.73;13.65;;;;;;;8.18;78.58;97960.22;6234317;23;20043;-75
2024/01/18 03:22:17;;;;;;;22.33;12.45;;;;;;;8.18;78.99;97966.31;6234041;23;20043;-75
2024/01/18 03:25:03;;;;;;;20.58;11.77;;;;;;;8.06;79.67;97969.06;6235289;23;20036;-77
2024/01/18 03:27:48;;;;;;;21.65;11.13;;;;;;;7.96;79.84;97965.47;6234054;23;20027;-76
2024/01/18 03:30:34;;;;;;;24.90;11.55;;;;;;;7.99;80.45;97965.81;6233994;23;20027;-76
2024/01/18 03:33:19;;;;;;;23.77;11.90;;;;;;;7.99;80.27;97972.91;6234529;23;20035;-76
2024/01/18 03:36:06;;;;;;;27.55;13.25;;;;;;;7.93;80.95;97969.41;6232842;23;20428;-75
2024/01/18 03:38:50;;;;;;;30.13;13.88;;;;;;;7.89;80.90;97973.56;6234578;23;20031;-75
2024/01/18 03:41:36;;;;;;;36.42;14.13;;;;;;;7.86;81.25;97956.34;6230095;22;20302;-77
2024/01/18 03:44:22;;;;;;;35.80;14.20;;;;;;;7.89;80.94;97963.00;6234818;23;20043;-76
2024/01/18 03:47:07;;;;;;;37.20;16.95;;;;;;;7.99;80.69;97963.16;6235167;23;20305;-75
2024/01/18 03:49:52;;;;;;;23.30;11.10;;;;;;;8.04;80.51;97963.22;6232419;23;20023;-75
2024/01/18 03:52:38;;;;;;;26.20;11.48;;;;;;;7.97;81.14;97970.53;6235271;23;20031;-76
2024/01/18 03:55:23;;;;;;;27.20;11.80;;;;;;;7.90;81.06;97951.38;6235057;23;20431;-77
2024/01/18 03:58:09;;;;;;;24.77;11.82;;;;;;;7.92;81.17;97945.84;6235203;23;20313;-74
2024/01/18 04:00:54;;;;;;;37.10;13.77;;;;;;;8.09;81.32;97938.69;6234428;23;20043;-75
2024/01/18 04:03:42;;;;;;;36.38;16.40;;;;;;;8.22;80.83;97929.59;6234015;23;20456;-76
2024/01/18 04:06:28;;;;;;;22.40;11.15;;;;;;;8.54;79.82;97933.16;6234352;23;20313;-75
2024/01/18 04:09:13;;;;;;;14.35;8.13;;;;;;;9.00;78.71;97932.84;6234047;23;20030;-76
2024/01/18 04:11:59;;;;;;;9.65;5.32;;;;;;;9.77;75.57;97930.78;6234380;23;20436;-76
2024/01/18 04:14:44;;;;;;;15.35;6.07;;;;;;;10.09;74.04;97936.00;6233018;23;20027;-76
2024/01/18 04:17:30;;;;;;;12.50;7.40;;;;;;;10.30;72.02;97932.44;6233629;23;20324;-75
2024/01/18 04:20:21;;;;;;;14.10;8.13;;;;;;;10.45;71.87;97929.06;6233794;23;20436;-75
2024/01/18 04:23:06;;;;;;;11.25;5.68;;;;;;;10.92;69.96;97917.50;6232608;23;20068;-76
2024/01/18 04:25:52;;;;;;;7.15;3.15;;;;;;;11.46;68.24;97898.34;6233803;23;20428;-76
2024/01/18 04:28:37;;;;;;;6.38;2.80;;;;;;;12.01;65.50;97923.31;6234147;23;20428;-75
2024/01/18 04:31:23;;;;;;;5.32;2.53;;;;;;;12.49;64.12;97934.34;6232129;23;20027;-76
2024/01/18 04:34:09;;;;;;;4.85;1.75;;;;;;;12.78;62.22;97907.00;6234523;23;20026;-76
2024/01/18 04:36:54;;;;;;;8.57;3.20;;;;;;;13.35;60.57;97940.28;6233921;23;20027;-76
2024/01/18 04:39:39;;;;;;;1.85;1.30;;;;;;;13.23;60.64;97917.66;6233789;23;20305;-76
2024/01/18 04:42:26;;;;;;;3.42;1.85;;;;;;;13.52;59.83;97920.38;6225512;23;20427;-75
2024/01/18 04:45:11;;;;;;;3.90;1.40;;;;;;;13.71;59.34;97928.47;6234178;23;20440;-76
2024/01/18 04:47:57;;;;;;;3.28;1.83;;;;;;;13.76;59.22;97902.53;6233824;23;20027;-74
2024/01/18 04:50:42;;;;;;;7.50;3.05;;;;;;;13.64;59.66;97908.25;6211924;23;20432;-75
2024/01/18 04:53:28;;;;;;;4.57;1.70;;;;;;;13.75;59.04;97908.94;6231938;23;20448;-75
2024/01/18 04:56:13;;;;;;;6.40;1.90;;;;;;;13.65;59.34;97923.19;6233995;23;20027;-75
2024/01/18 04:58:59;;;;;;;2.72;1.92;;;;;;;13.77;59.33;97932.69;6233682;23;20027;-75
2024/01/18 05:01:44;;;;;;;4.40;2.60;;;;;;;13.73;59.01;97937.81;6233747;23;20437;-76
2024/01/18 05:04:30;;;;;;;4.63;2.20;;;;;;;13.67;59.45;97930.94;6234040;23;20314;-76
2024/01/18 05:07:15;;;;;;;3.00;1.65;;;;;;;13.71;59.42;97917.81;6233313;23;20042;-75
2024/01/18 05:10:05;;;;;;;3.25;1.40;;;;;;;13.88;58.22;97902.94;6233471;23;20027;-74
2024/01/18 05:12:52;;;;;;;2.72;1.40;;;;;;;13.89;58.62;97901.06;6211541;23;20046;-74
2024/01/18 05:15:37;;;;;;;4.00;1.92;;;;;;;13.67;58.96;97908.78;6233357;23;20027;-75
2024/01/18 05:18:22;;;;;;;5.20;2.45;;;;;;;13.11;60.89;97912.66;6233658;23;20444;-75
2024/01/18 05:21:07;;;;;;;4.43;2.20;;;;;;;12.73;62.36;97899.84;6233195;23;20043;-76
2024/01/18 05:23:53;;;;;;;9.82;5.28;;;;;;;12.53;63.33;97907.13;6231901;23;20036;-74
2024/01/18 05:26:39;;;;;;;6.72;3.22;;;;;;;12.49;62.86;97897.03;6233561;23;20310;-75
2024/01/18 05:29:25;;;;;;;6.03;2.60;;;;;;;12.45;63.61;97881.88;6232544;23;20043;-75
2024/01/18 05:32:10;;;;;;;4.35;2.22;;;;;;;12.71;62.21;97871.88;6233973;23;20043;-74
2024/01/18 05:34:55;;;;;;;6.13;3.33;;;;;;;13.02;61.57;97871.66;6232884;23;20349;-76
2024/01/18 05:37:41;;;;;;;6.15;2.65;;;;;;;12.77;62.49;97860.09;6233262;23;20031;-74
2024/01/18 05:40:27;;;;;;;3.05;1.27;;;;;;;12.98;61.57;97860.75;6230954;23;20031;-74
2024/01/18 05:43:12;;;;;;;1.80;1.02;;;;;;;13.30;60.29;97833.56;6234015;23;20448;-74
2024/01/18 05:45:58;;;;;;;8.50;5.05;;;;;;;13.44;60.46;97839.03;6233495;23;20043;-74
2024/01/18 05:48:43;;;;;;;1.50;1.02;;;;;;;13.49;59.82;97847.00;6232873;23;20027;-77
2024/01/18 05:51:29;;;;;;;2.60;1.50;;;;;;;13.56;59.47;97865.34;6232891;23;20027;-75
2024/01/18 05:54:15;;;;;;;3.08;1.20;;;;;;;13.53;59.74;97881.94;6232929;23;20317;-75
2024/01/18 05:57:03;;;;;;;3.15;1.30;;;;;;;13.59;59.12;97880.81;6233445;23;20043;-75
2024/01/18 05:59:48;;;;;;;2.45;1.58;;;;;;;13.42;59.68;97902.59;6232054;23;20028;-75
2024/01/18 06:02:34;;;;;;;3.80;1.80;;;;;;;13.42;59.17;97891.91;6233319;23;20043;-75
2024/01/18 06:05:20;;;;;;;5.00;2.10;;;;;;;13.44;59.60;97900.41;6233978;23;20436;-76
2024/01/18 06:08:06;;;;;;;5.13;2.33;;;;;;;13.53;59.78;97876.59;6232957;23;20074;-75
2024/01/18 06:10:51;;;;;;;7.30;2.70;;;;;;;13.68;59.21;97879.13;6232801;23;20047;-74
2024/01/18 06:13:39;;;;;;;9.98;3.40;;;;;;;13.74;58.76;97888.66;6233346;23;20444;-74
2024/01/18 06:16:24;;;;;;;12.50;5.03;;;;;;;13.67;59.56;97877.53;6231697;23;20027;-74
2024/01/18 06:19:10;;;;;;;13.30;5.82;;;;;;;13.53;59.80;97863.25;6233625;23;20436;-74
2024/01/18 06:21:55;;;;;;;6.47;3.38;;;;;;;13.54;59.40;97854.97;6233192;23;20028;-75
2024/01/18 06:24:41;;;;;;;4.25;1.58;;;;;;;13.70;59.95;97860.94;6233354;23;20031;-75
2024/01/18 06:27:26;;;;;;;3.88;1.70;;;;;;;13.64;60.08;97860.19;6232330;23;20027;-75
2024/01/18 06:30:13;;;;;;;3.20;1.90;;;;;;;13.65;59.74;97866.34;6232815;23;20329;-75
2024/01/18 06:32:57;;;;;;;3.80;2.47;;;;;;;13.65;60.08;97863.66;6233542;23;20031;-76
2024/01/18 06:35:43;;;;;;;12.70;8.35;;;;;;;13.44;60.46;97855.06;6236662;23;20042;-76
2024/01/18 06:38:29;;;;;;;9.45;5.60;;;;;;;13.47;59.92;97861.69;6234224;23;20027;-75
2024/01/18 06:41:14;;;;;;;11.65;7.00;;;;;;;13.41;60.73;97858.28;6231711;22;20309;-76
2024/01/18 06:44:00;;;;;;;5.63;3.85;;;;;;;13.44;60.04;97857.72;6234574;23;20450;-76
2024/01/18 06:46:45;;;;;;;30.58;20.15;;;;;;;13.39;60.57;97850.56;6234489;23;20027;-76
2024/01/18 06:49:31;;;;;;;16.20;9.77;;;;;;;13.33;60.85;97843.69;6234189;23;20317;-75
2024/01/18 06:52:17;;;;;;;14.77;12.40;;;;;;;13.37;60.84;97863.38;6234090;23;20023;-76
2024/01/18 06:55:02;;;;;;;4.72;2.78;;;;;;;13.40;60.55;97854.03;6235256;23;20039;-76
2024/01/18 06:57:48;;;;;;;8.00;3.22;;;;;;;13.50;59.58;97853.13;6234451;23;20027;-76
2024/01/18 07:00:33;;;;;;;5.50;3.00;;;;;;;13.73;58.95;97855.06;6233807;23;20042;-75
2024/01/18 07:03:20;;;;;;;3.78;2.17;;;;;;;13.53;60.25;97860.56;6235057;23;20322;-76
2024/01/18 07:06:06;;;;;;;6.22;4.28;;;;;;;13.54;59.63;97860.31;6232850;23;20026;-76
2024/01/18 07:08:51;;;;;;;6.60;3.47;;;;;;;13.58;59.73;97847.19;6234612;23;20027;-76
2024/01/18 07:11:38;;;;;;;4.97;3.10;;;;;;;13.67;59.13;97844.72;6233661;23;20027;-77
2024/01/18 07:14:24;;;;;;;3.95;2.58;;;;;;;13.58;59.44;97848.00;6234258;23;20031;-76
2024/01/18 07:17:12;;;;;;;5.15;1.88;;;;;;;13.74;58.62;97851.28;6233006;23;20027;-76
2024/01/18 07:19:58;;;;;;;6.35;2.83;;;;;;;13.84;58.59;97850.38;6234187;23;20027;-75
2024/01/18 07:22:43;;;;;;;8.45;4.63;;;;;;;13.77;59.24;97845.38;6234528;23;20432;-76
2024/01/18 07:25:29;;;;;;;3.60;2.10;;;;;;;13.89;58.70;97845.00;6234437;23;20031;-75
2024/01/18 07:28:14;;;;;;;3.75;2.35;;;;;;;13.87;58.91;97836.47;6233654;23;20027;-75
2024/01/18 07:31:01;;;;;;;4.28;2.90;;;;;;;13.81;59.29;97850.94;6234441;23;20440;-76
2024/01/18 07:33:50;;;;;;;11.10;5.18;;;;;;;13.78;59.31;97857.66;6234077;23;20047;-75
2024/01/18 07:36:35;;;;;;;6.13;2.50;;;;;;;14.05;57.39;97845.63;6234237;23;20031;-74
2024/01/18 07:39:20;;;;;;;3.28;2.22;;;;;;;14.04;58.11;97836.00;6233953;23;20419;-75
2024/01/18 07:42:07;;;;;;;7.07;3.45;;;;;;;14.21;57.21;97830.97;6233261;22;20027;-77
2024/01/18 07:44:53;;;;;;;50.08;22.75;;;;;;;14.32;57.43;97839.63;6233800;23;20068;-75
2024/01/18 07:47:38;;;;;;;98.97;50.17;;;;;;;14.20;57.78;97816.03;6231541;23;20325;-76
2024/01/18 07:50:23;;;;;;;12.98;9.35;;;;;;;14.27;57.23;97800.44;6233266;23;20079;-76
2024/01/18 07:53:10;;;;;;;6.45;4.20;;;;;;;14.34;56.65;97810.75;6234318;23;20440;-75
2024/01/18 07:55:55;;;;;;;12.20;5.90;;;;;;;14.29;56.77;97794.78;6237231;23;20444;-76
2024/01/18 07:58:43;;;;;;;15.55;7.40;;;;;;;14.29;57.78;97800.13;6236841;23;20031;-75
2024/01/18 08:01:29;;;;;;;6.47;3.28;;;;;;;14.50;56.16;97800.66;6234189;23;20023;-75
2024/01/18 08:04:15;;;;;;;15.30;7.70;;;;;;;14.56;56.23;97794.97;6232437;23;20496;-75
2024/01/18 08:07:00;;;;;;;19.45;11.48;;;;;;;14.56;55.53;97773.59;6234104;23;20027;-75
2024/01/18 08:09:46;;;;;;;13.07;8.98;;;;;;;14.66;56.09;97769.94;6233117;23;20322;-75
2024/01/18 08:12:31;;;;;;;8.35;4.63;;;;;;;14.75;55.27;97770.09;6233633;23;20310;-75
2024/01/18 08:15:18;;;;;;;5.35;3.17;;;;;;;15.59;52.91;97747.75;6233231;23;20031;-76
2024/01/18 08:18:03;;;;;;;15.57;9.45;;;;;;;15.79;52.13;97736.63;6233602;23;20031;-76
2024/01/18 08:20:48;;;;;;;6.05;3.65;;;;;;;16.01;51.13;97746.63;6232817;23;20031;-75
2024/01/18 08:23:34;;;;;;;7.47;2.90;;;;;;;16.25;51.41;97743.69;6233688;23;20027;-76
2024/01/18 08:26:21;;;;;;;4.82;3.10;;;;;;;16.51;50.68;97748.47;6235344;23;20027;-75
2024/01/18 08:29:06;;;;;;;9.13;4.32;;;;;;;16.60;50.33;97755.47;6233331;23;20325;-75
2024/01/18 08:31:52;;;;;;;8.80;5.57;;;;;;;16.91;49.60;97754.78;6234370;23;20047;-76
2024/01/18 08:34:37;;;;;;;9.15;4.45;;;;;;;17.03;49.30;97738.91;6233321;23;20314;-75
2024/01/18 08:37:22;;;;;;;11.45;4.85;;;;;;;16.96;49.09;97733.19;6233148;23;20076;-75
2024/01/18 08:40:08;;;;;;;9.80;4.30;;;;;;;17.15;48.94;97750.97;6233638;23;20313;-76
2024/01/18 08:42:53;;;;;;;6.50;3.40;;;;;;;17.28;49.39;97740.13;6223230;22;20432;-76
2024/01/18 08:45:41;;;;;;;14.98;9.20;;;;;;;17.49;49.13;97736.91;6232954;23;20027;-74
2024/01/18 08:48:26;;;;;;;11.85;6.45;;;;;;;17.66;47.93;97730.78;6233309;23;20043;-75
2024/01/18 08:51:14;;;;;;;8.13;3.40;;;;;;;17.80;48.95;97728.81;6231666;23;20325;-76
2024/01/18 08:54:01;;;;;;;8.13;4.60;;;;;;;17.62;47.96;97727.94;6231857;23;20031;-76
2024/01/18 08:56:47;;;;;;;11.50;5.30;;;;;;;17.69;48.65;97735.53;6232605;23;20027;-76
2024/01/18 08:59:33;;;;;;;13.77;5.82;;;;;;;17.75;48.51;97745.81;6232344;23;20326;-75
2024/01/18 09:02:19;;;;;;;12.75;6.65;;;;;;;17.75;49.45;97753.09;6233269;23;20070;-76
2024/01/18 09:05:06;;;;;;;9.18;4.63;;;;;;;17.48;48.29;97754.88;6232166;23;20440;-75
2024/01/18 09:07:51;;;;;;;15.10;7.00;;;;;;;17.48;49.90;97741.47;6233389;23;20325;-74
2024/01/18 09:10:37;;;;;;;16.20;6.82;;;;;;;17.56;50.37;97754.13;6231700;23;20027;-75
2024/01/18 09:13:22;;;;;;;9.00;5.05;;;;;;;17.62;48.81;97740.56;6233684;23;20031;-75
2024/01/18 09:16:08;;;;;;;7.20;2.88;;;;;;;18.27;46.95;97754.00;6236678;23;20027;-75
2024/01/18 09:18:53;;;;;;;3.63;2.20;;;;;;;18.50;45.91;97749.25;6234283;23;20436;-75
2024/01/18 09:21:41;;;;;;;4.93;2.88;;;;;;;18.45;47.27;97744.03;6232509;23;20027;-75
2024/01/18 09:24:26;;;;;;;6.85;3.25;;;;;;;18.74;46.70;97739.94;6233822;23;20031;-75
2024/01/18 09:27:12;;;;;;;4.85;2.15;;;;;;;18.77;45.97;97733.91;6233924;23;20031;-75
2024/01/18 09:29:58;;;;;;;7.03;1.73;;;;;;;18.94;45.23;97733.88;6233929;23;20432;-75
2024/01/18 09:32:45;;;;;;;4.95;1.90;;;;;;;18.72;45.96;97728.66;6232982;23;20043;-76
2024/01/18 09:35:30;;;;;;;9.23;2.92;;;;;;;18.66;45.70;97725.34;6233529;23;20436;-76
2024/01/18 09:38:17;;;;;;;11.00;3.70;;;;;;;18.77;47.37;97730.41;6233506;23;20031;-77
2024/01/18 09:41:07;;;;;;;5.47;2.40;;;;;;;18.67;46.45;97715.38;6231324;23;20027;-78
2024/01/18 09:43:56;;;;;;;6.65;3.67;;;;;;;18.84;46.26;97715.38;6233105;23;20138;-74
2024/01/18 09:46:42;;;;;;;6.72;2.97;;;;;;;18.82;46.57;97701.44;6232563;23;20035;-76
2024/01/18 09:49:31;;;;;;;9.70;2.70;;;;;;;18.83;46.48;97689.56;6233775;23;20027;-74
2024/01/18 09:52:17;;;;;;;6.95;2.70;;;;;;;18.71;45.96;97690.19;6233385;23;20043;-77
2024/01/18 09:55:04;;;;;;;8.95;2.60;;;;;;;18.69;46.61;97699.69;6232841;23;20034;-76
2024/01/18 09:57:53;;;;;;;5.80;2.83;;;;;;;18.93;46.04;97683.06;6233072;23;20076;-75
2024/01/18 10:00:43;;;;;;;9.00;2.70;;;;;;;18.74;46.07;97672.66;6231484;23;20444;-77
2024/01/18 10:03:28;;;;;;;9.27;3.78;;;;;;;18.87;45.54;97677.06;6231718;23;20443;-77
2024/01/18 10:06:14;;;;;;;28.30;12.45;;;;;;;18.84;46.34;97677.69;6233309;23;20043;-76
2024/01/18 10:09:00;;;;;;;10.38;4.72;;;;;;;18.62;46.40;97664.44;6233518;23;20027;-76
2024/01/18 10:11:46;;;;;;;11.68;4.50;;;;;;;18.63;46.81;97657.94;6233072;23;20027;-77
2024/01/18 10:14:42;;;;;;;5.80;3.38;;;;;;;18.36;46.55;97648.31;6234480;23;20444;-74
2024/01/18 10:17:29;;;;;;;9.82;5.07;;;;;;;18.16;47.39;97655.16;6212548;23;20433;-75
2024/01/18 10:20:17;;;;;;;12.95;6.40;;;;;;;18.36;47.88;97654.47;6235228;23;20301;-75
2024/01/18 10:23:02;;;;;;;13.65;5.88;;;;;;;18.24;48.11;97641.72;6235884;23;20044;-75
2024/01/18 10:25:48;;;;;;;12.05;6.50;;;;;;;18.37;47.42;97645.31;6235615;23;20313;-76
2024/01/18 10:28:33;;;;;;;8.70;3.38;;;;;;;18.33;46.87;97644.34;6234815;23;20046;-76
2024/01/18 10:31:19;;;;;;;12.23;4.88;;;;;;;18.35;47.45;97650.22;6235405;23;20027;-76
2024/01/18 10:34:05;;;;;;;9.45;4.40;;;;;;;18.31;47.27;97635.06;6234944;23;20290;-76
2024/01/18 10:36:51;;;;;;;8.38;3.00;;;;;;;18.31;46.71;97629.69;6237508;23;20035;-76
2024/01/18 10:39:39;;;;;;;14.23;4.30;;;;;;;18.04;47.70;97624.31;6236585;23;20433;-75
2024/01/18 10:42:25;;;;;;;15.63;5.65;;;;;;;18.10;47.92;97627.63;6225440;23;20432;-76
2024/01/18 10:45:11;;;;;;;8.73;3.63;;;;;;;18.32;47.32;97628.56;6234859;23;20039;-75
2024/01/18 10:47:58;;;;;;;9.13;3.10;;;;;;;18.39;47.08;97618.09;6234495;23;20429;-75
2024/01/18 10:50:45;;;;;;;11.80;2.63;;;;;;;18.29;46.35;97613.84;6234671;23;20439;-74
2024/01/18 10:53:34;;;;;;;6.32;2.67;;;;;;;18.41;46.68;97597.06;6235308;23;20436;-75
2024/01/18 10:56:22;;;;;;;10.32;3.33;;;;;;;18.46;46.17;97596.91;6234435;23;20027;-76
2024/01/18 10:59:09;;;;;;;7.63;3.22;;;;;;;18.46;47.81;97608.44;6234609;23;20027;-75
2024/01/18 11:01:57;;;;;;;9.48;3.50;;;;;;;18.47;45.75;97590.41;6234606;23;20027;-75
2024/01/18 11:04:44;;;;;;;12.45;5.65;;;;;;;18.41;46.62;97602.44;6212355;23;20457;-75
2024/01/18 11:07:29;;;;;;;7.32;3.00;;;;;;;18.37;46.35;97585.38;6233871;23;20023;-77
2024/01/18 11:10:15;;;;;;;8.90;3.40;;;;;;;18.36;45.93;97570.34;6232518;23;20027;-76
2024/01/18 11:13:06;;;;;;;9.73;3.60;;;;;;;18.19;46.42;97574.66;6234631;23;20314;-75
2024/01/18 11:15:53;;;;;;;7.38;3.83;;;;;;;18.29;47.19;97568.13;6233261;23;20031;-75
2024/01/18 11:18:39;;;;;;;11.13;5.13;;;;;;;18.19;47.80;97576.56;6233783;23;20440;-76
2024/01/18 11:21:39;;;;;;;13.65;6.50;;;;;;;18.06;46.39;97566.78;6233586;23;20027;-76
2024/01/18 11:24:25;;;;;;;9.40;3.85;;;;;;;17.98;46.76;97558.38;6232588;23;20389;-78
2024/01/18 11:27:21;;;;;;;10.02;4.35;;;;;;;17.96;47.35;97570.59;6231576;23;20326;-76
2024/01/18 11:30:35;;;;;;;17.35;8.90;;;;;;;18.01;47.07;97565.81;6231829;23;20043;-77
2024/01/18 11:33:20;;;;;;;8.88;4.35;;;;;;;18.15;45.72;97570.25;6230509;23;20027;-75
2024/01/18 11:36:11;;;;;;;13.27;4.45;;;;;;;18.14;45.67;97563.25;6230826;23;20075;-78
2024/01/18 11:38:56;;;;;;;9.77;4.82;;;;;;;17.99;46.11;97543.84;6230926;23;20314;-77
2024/01/18 11:41:45;;;;;;;14.43;6.13;;;;;;;18.04;46.68;97559.78;6227472;23;20027;-76
2024/01/18 11:44:31;;;;;;;37.10;26.13;;;;;;;17.83;47.64;97564.28;6233826;23;20027;-75
2024/01/18 11:47:18;;;;;;;22.67;10.45;;;;;;;17.85;45.88;97550.50;6233262;23;20027;-75
2024/01/18 11:50:08;;;;;;;22.98;9.70;;;;;;;17.85;46.27;97545.91;6212261;23;20031;-76
2024/01/18 11:52:53;;;;;;;17.00;8.38;;;;;;;17.83;46.76;97552.72;6211722;23;20027;-75
2024/01/18 11:55:45;;;;;;;9.35;3.60;;;;;;;17.86;45.30;97547.50;6235800;23;20442;-74
2024/01/18 11:58:31;;;;;;;7.60;3.25;;;;;;;17.93;43.56;97542.44;6236855;23;20371;-76
2024/01/18 12:01:19;;;;;;;6.60;2.60;;;;;;;17.89;43.90;97528.03;6232743;23;20039;-76
2024/01/18 12:04:05;;;;;;;7.95;3.83;;;;;;;17.80;43.81;97521.91;6233778;23;20027;-76
2024/01/18 12:06:50;;;;;;;25.48;15.23;;;;;;;17.76;43.86;97535.13;6233138;23;20043;-74
2024/01/18 12:09:36;;;;;;;17.70;6.50;;;;;;;17.66;44.56;97540.06;6233766;23;20312;-76
2024/01/18 12:12:22;;;;;;;16.15;6.60;;;;;;;17.45;45.02;97527.25;6233524;23;20314;-77
2024/01/18 12:15:08;;;;;;;18.77;9.30;;;;;;;17.44;45.23;97528.38;6232430;23;20444;-77
2024/01/18 12:17:55;;;;;;;17.63;9.65;;;;;;;17.50;45.05;97539.75;6233576;23;20298;-74
2024/01/18 12:20:42;;;;;;;14.02;6.35;;;;;;;17.46;45.59;97534.22;6233482;23;20031;-75
2024/01/18 12:23:29;;;;;;;29.75;19.77;;;;;;;17.43;46.32;97539.44;6234334;23;20027;-75
2024/01/18 12:26:15;;;;;;;23.23;12.75;;;;;;;17.25;46.53;97544.78;6233819;23;20027;-75
2024/01/18 12:29:02;;;;;;;88.35;34.80;;;;;;;17.02;47.46;97540.63;6232256;23;20118;-74
2024/01/18 12:31:49;;;;;;;96.75;33.88;;;;;;;16.94;47.46;97534.13;6234139;23;20027;-76
2024/01/18 12:34:35;;;;;;;36.22;11.38;;;;;;;16.91;46.66;97545.50;6233015;23;20444;-75
2024/01/18 12:37:21;;;;;;;81.68;32.53;;;;;;;16.75;47.81;97544.31;6231868;23;20322;-77
2024/01/18 12:40:10;;;;;;;295.73;152.90;;;;;;;16.68;47.78;97552.81;6233545;23;20258;-78
2024/01/18 12:43:03;;;;;;;139.02;60.45;;;;;;;16.53;48.79;97543.28;6234292;23;20016;-76
2024/01/18 12:45:51;;;;;;;52.75;20.73;;;;;;;16.46;50.21;97545.63;6233918;23;20107;-75
2024/01/18 12:48:36;;;;;;;77.15;25.83;;;;;;;16.43;49.59;97551.59;6232065;23;20318;-77
2024/01/18 12:51:21;;;;;;;91.15;44.38;;;;;;;16.58;48.32;97553.88;6232051;23;20043;-75
2024/01/18 12:54:08;;;;;;;76.78;40.45;;;;;;;16.62;48.51;97549.47;6231689;23;20027;-76
2024/01/18 12:56:57;;;;;;;119.00;43.25;;;;;;;16.58;49.06;97543.16;6232167;23;20398;-76